sensor_id;sensor_type;location;lat;lon;timestamp;P1;durP1;ratioP1;P2;durP2;ratioP2
51451;SDS011;37521;52.020;-1.740;2023-04-24T00:02:30;3.83;;;2.90;;
51451;SDS011;37521;52.020;-1.740;2023-04-24T00:04:58;4.90;;;3.00;;
51451;SDS011;37521;52.020;-1.740;2023-04-24T00:07:29;3.30;;;2.67;;
51451;SDS011;37521;52.020;-1.740;2023-04-24T00:09:57;4.35;;;2.67;;
51451;SDS011;37521;52.020;-1.740;2023-04-24T00:12:26;4.10;;;3.10;;
51451;SDS011;37521;52.020;-1.740;2023-04-24T00:14:54;4.43;;;3.40;;
51451;SDS011;37521;52.020;-1.740;2023-04-24T00:17:24;6.00;;;3.22;;
51451;SDS011;37521;52.020;-1.740;2023-04-24T00:19:52;8.00;;;2.75;;
51451;SDS011;37521;52.020;-1.740;2023-04-24T00:22:25;6.82;;;3.65;;
51451;SDS011;37521;52.020;-1.740;2023-04-24T00:24:54;4.60;;;3.00;;
51451;SDS011;37521;52.020;-1.740;2023-04-24T00:27:23;4.38;;;3.03;;
51451;SDS011;37521;52.020;-1.740;2023-04-24T00:29:53;4.70;;;3.15;;
51451;SDS011;37521;52.020;-1.740;2023-04-24T00:32:21;8.27;;;3.20;;
51451;SDS011;37521;52.020;-1.740;2023-04-24T00:34:52;4.72;;;2.97;;
51451;SDS011;37521;52.020;-1.740;2023-04-24T00:37:21;5.43;;;3.38;;
51451;SDS011;37521;52.020;-1.740;2023-04-24T00:39:51;4.78;;;2.80;;
51451;SDS011;37521;52.020;-1.740;2023-04-24T00:42:20;5.40;;;2.80;;
51451;SDS011;37521;52.020;-1.740;2023-04-24T00:44:50;3.28;;;2.72;;
51451;SDS011;37521;52.020;-1.740;2023-04-24T00:47:20;2.97;;;2.25;;
51451;SDS011;37521;52.020;-1.740;2023-04-24T00:49:49;4.13;;;2.75;;
51451;SDS011;37521;52.020;-1.740;2023-04-24T00:52:20;3.92;;;2.85;;
51451;SDS011;37521;52.020;-1.740;2023-04-24T00:54:50;4.03;;;2.47;;
51451;SDS011;37521;52.020;-1.740;2023-04-24T00:57:20;4.13;;;2.88;;
51451;SDS011;37521;52.020;-1.740;2023-04-24T00:59:51;4.88;;;3.65;;
51451;SDS011;37521;52.020;-1.740;2023-04-24T01:02:21;3.13;;;2.40;;
51451;SDS011;37521;52.020;-1.740;2023-04-24T01:04:54;4.88;;;2.70;;
51451;SDS011;37521;52.020;-1.740;2023-04-24T01:07:23;3.42;;;3.00;;
51451;SDS011;37521;52.020;-1.740;2023-04-24T01:09:53;4.10;;;2.67;;
51451;SDS011;37521;52.020;-1.740;2023-04-24T01:12:24;4.20;;;2.92;;
51451;SDS011;37521;52.020;-1.740;2023-04-24T01:14:52;3.92;;;2.33;;
51451;SDS011;37521;52.020;-1.740;2023-04-24T01:17:22;3.10;;;2.70;;
51451;SDS011;37521;52.020;-1.740;2023-04-24T01:19:51;6.15;;;3.08;;
51451;SDS011;37521;52.020;-1.740;2023-04-24T01:22:22;4.35;;;2.63;;
51451;SDS011;37521;52.020;-1.740;2023-04-24T01:24:51;2.88;;;2.20;;
51451;SDS011;37521;52.020;-1.740;2023-04-24T01:27:20;5.63;;;2.72;;
51451;SDS011;37521;52.020;-1.740;2023-04-24T01:29:51;5.72;;;2.55;;
51451;SDS011;37521;52.020;-1.740;2023-04-24T01:32:20;3.75;;;2.65;;
51451;SDS011;37521;52.020;-1.740;2023-04-24T01:34:50;3.30;;;2.70;;
51451;SDS011;37521;52.020;-1.740;2023-04-24T01:37:21;3.25;;;2.45;;
51451;SDS011;37521;52.020;-1.740;2023-04-24T01:39:51;4.30;;;3.13;;
51451;SDS011;37521;52.020;-1.740;2023-04-24T01:42:21;5.03;;;3.03;;
51451;SDS011;37521;52.020;-1.740;2023-04-24T01:44:50;4.80;;;2.55;;
51451;SDS011;37521;52.020;-1.740;2023-04-24T01:47:20;2.97;;;2.15;;
51451;SDS011;37521;52.020;-1.740;2023-04-24T01:49:50;4.10;;;2.90;;
51451;SDS011;37521;52.020;-1.740;2023-04-24T01:52:19;3.40;;;2.60;;
51451;SDS011;37521;52.020;-1.740;2023-04-24T01:54:50;3.90;;;2.50;;
51451;SDS011;37521;52.020;-1.740;2023-04-24T01:57:20;3.38;;;2.33;;
51451;SDS011;37521;52.020;-1.740;2023-04-24T01:59:49;6.32;;;3.10;;
51451;SDS011;37521;52.020;-1.740;2023-04-24T02:02:18;3.05;;;2.33;;
51451;SDS011;37521;52.020;-1.740;2023-04-24T02:04:47;3.83;;;3.00;;
51451;SDS011;37521;52.020;-1.740;2023-04-24T02:07:16;3.10;;;2.78;;
51451;SDS011;37521;52.020;-1.740;2023-04-24T02:09:45;3.15;;;2.35;;
51451;SDS011;37521;52.020;-1.740;2023-04-24T02:12:14;4.28;;;2.80;;
51451;SDS011;37521;52.020;-1.740;2023-04-24T02:14:43;3.05;;;2.03;;
51451;SDS011;37521;52.020;-1.740;2023-04-24T02:17:11;4.40;;;2.80;;
51451;SDS011;37521;52.020;-1.740;2023-04-24T02:19:40;6.00;;;2.20;;
51451;SDS011;37521;52.020;-1.740;2023-04-24T02:22:09;3.03;;;2.45;;
51451;SDS011;37521;52.020;-1.740;2023-04-24T02:24:38;3.80;;;2.67;;
51451;SDS011;37521;52.020;-1.740;2023-04-24T02:27:07;2.78;;;2.10;;
51451;SDS011;37521;52.020;-1.740;2023-04-24T02:29:36;2.83;;;2.55;;
51451;SDS011;37521;52.020;-1.740;2023-04-24T02:32:07;3.88;;;2.50;;
51451;SDS011;37521;52.020;-1.740;2023-04-24T02:34:38;6.95;;;2.58;;
51451;SDS011;37521;52.020;-1.740;2023-04-24T02:37:07;2.72;;;2.30;;
51451;SDS011;37521;52.020;-1.740;2023-04-24T02:39:36;2.90;;;2.35;;
51451;SDS011;37521;52.020;-1.740;2023-04-24T02:42:07;3.20;;;2.83;;
51451;SDS011;37521;52.020;-1.740;2023-04-24T02:44:37;3.75;;;2.38;;
51451;SDS011;37521;52.020;-1.740;2023-04-24T02:47:05;4.40;;;2.72;;
51451;SDS011;37521;52.020;-1.740;2023-04-24T02:49:34;4.53;;;2.47;;
51451;SDS011;37521;52.020;-1.740;2023-04-24T02:52:02;3.63;;;2.60;;
51451;SDS011;37521;52.020;-1.740;2023-04-24T02:54:30;3.42;;;2.47;;
51451;SDS011;37521;52.020;-1.740;2023-04-24T02:56:58;3.65;;;2.70;;
51451;SDS011;37521;52.020;-1.740;2023-04-24T02:59:29;4.47;;;2.83;;
51451;SDS011;37521;52.020;-1.740;2023-04-24T03:01:58;3.60;;;3.00;;
51451;SDS011;37521;52.020;-1.740;2023-04-24T03:04:26;3.97;;;3.03;;
51451;SDS011;37521;52.020;-1.740;2023-04-24T03:06:55;3.80;;;3.03;;
51451;SDS011;37521;52.020;-1.740;2023-04-24T03:09:23;4.43;;;2.65;;
51451;SDS011;37521;52.020;-1.740;2023-04-24T03:11:52;4.07;;;2.97;;
51451;SDS011;37521;52.020;-1.740;2023-04-24T03:14:20;4.53;;;3.13;;
51451;SDS011;37521;52.020;-1.740;2023-04-24T03:16:49;4.47;;;2.90;;
51451;SDS011;37521;52.020;-1.740;2023-04-24T03:19:18;4.75;;;2.75;;
51451;SDS011;37521;52.020;-1.740;2023-04-24T03:21:58;4.13;;;2.78;;
51451;SDS011;37521;52.020;-1.740;2023-04-24T03:24:26;4.82;;;2.65;;
51451;SDS011;37521;52.020;-1.740;2023-04-24T03:26:55;6.13;;;3.38;;
51451;SDS011;37521;52.020;-1.740;2023-04-24T03:29:41;4.50;;;3.00;;
51451;SDS011;37521;52.020;-1.740;2023-04-24T03:32:12;4.22;;;3.00;;
51451;SDS011;37521;52.020;-1.740;2023-04-24T03:34:40;3.78;;;2.92;;
51451;SDS011;37521;52.020;-1.740;2023-04-24T03:37:10;5.05;;;3.55;;
51451;SDS011;37521;52.020;-1.740;2023-04-24T03:39:43;4.57;;;2.75;;
51451;SDS011;37521;52.020;-1.740;2023-04-24T03:42:13;4.65;;;2.83;;
51451;SDS011;37521;52.020;-1.740;2023-04-24T03:44:49;4.72;;;2.78;;
51451;SDS011;37521;52.020;-1.740;2023-04-24T03:47:23;7.93;;;4.15;;
51451;SDS011;37521;52.020;-1.740;2023-04-24T03:49:54;3.85;;;3.22;;
51451;SDS011;37521;52.020;-1.740;2023-04-24T03:52:23;5.57;;;2.83;;
51451;SDS011;37521;52.020;-1.740;2023-04-24T03:54:51;3.90;;;3.08;;
51451;SDS011;37521;52.020;-1.740;2023-04-24T03:57:19;5.80;;;3.20;;
51451;SDS011;37521;52.020;-1.740;2023-04-24T04:00:09;3.80;;;2.15;;
51451;SDS011;37521;52.020;-1.740;2023-04-24T04:02:45;4.13;;;2.70;;
51451;SDS011;37521;52.020;-1.740;2023-04-24T04:05:14;2.78;;;2.53;;
51451;SDS011;37521;52.020;-1.740;2023-04-24T04:07:42;6.18;;;3.03;;
51451;SDS011;37521;52.020;-1.740;2023-04-24T04:10:10;4.35;;;3.20;;
51451;SDS011;37521;52.020;-1.740;2023-04-24T04:12:39;4.55;;;2.72;;
51451;SDS011;37521;52.020;-1.740;2023-04-24T04:15:07;6.38;;;3.53;;
51451;SDS011;37521;52.020;-1.740;2023-04-24T04:17:36;5.05;;;3.20;;
51451;SDS011;37521;52.020;-1.740;2023-04-24T04:20:07;6.35;;;3.55;;
51451;SDS011;37521;52.020;-1.740;2023-04-24T04:22:38;4.32;;;3.15;;
51451;SDS011;37521;52.020;-1.740;2023-04-24T04:25:13;4.10;;;2.72;;
51451;SDS011;37521;52.020;-1.740;2023-04-24T04:27:42;5.13;;;2.70;;
51451;SDS011;37521;52.020;-1.740;2023-04-24T04:30:12;5.03;;;3.08;;
51451;SDS011;37521;52.020;-1.740;2023-04-24T04:32:48;4.20;;;2.88;;
51451;SDS011;37521;52.020;-1.740;2023-04-24T04:35:18;6.20;;;3.05;;
51451;SDS011;37521;52.020;-1.740;2023-04-24T04:37:49;5.50;;;3.20;;
51451;SDS011;37521;52.020;-1.740;2023-04-24T04:40:36;3.78;;;2.60;;
51451;SDS011;37521;52.020;-1.740;2023-04-24T04:43:05;5.13;;;2.58;;
51451;SDS011;37521;52.020;-1.740;2023-04-24T04:45:41;4.05;;;3.17;;
51451;SDS011;37521;52.020;-1.740;2023-04-24T04:48:28;4.13;;;2.63;;
51451;SDS011;37521;52.020;-1.740;2023-04-24T04:51:01;4.25;;;2.55;;
51451;SDS011;37521;52.020;-1.740;2023-04-24T04:53:30;4.22;;;3.22;;
51451;SDS011;37521;52.020;-1.740;2023-04-24T04:56:01;3.65;;;2.65;;
51451;SDS011;37521;52.020;-1.740;2023-04-24T04:58:36;4.25;;;3.20;;
51451;SDS011;37521;52.020;-1.740;2023-04-24T05:01:10;3.22;;;2.50;;
51451;SDS011;37521;52.020;-1.740;2023-04-24T05:03:41;4.95;;;3.03;;
51451;SDS011;37521;52.020;-1.740;2023-04-24T05:06:14;4.07;;;3.03;;
51451;SDS011;37521;52.020;-1.740;2023-04-24T05:08:45;4.45;;;3.08;;
51451;SDS011;37521;52.020;-1.740;2023-04-24T05:11:27;2.97;;;2.47;;
51451;SDS011;37521;52.020;-1.740;2023-04-24T05:13:57;4.07;;;2.67;;
51451;SDS011;37521;52.020;-1.740;2023-04-24T05:16:33;5.15;;;2.85;;
51451;SDS011;37521;52.020;-1.740;2023-04-24T05:19:05;4.63;;;2.72;;
51451;SDS011;37521;52.020;-1.740;2023-04-24T05:21:39;6.07;;;3.65;;
51451;SDS011;37521;52.020;-1.740;2023-04-24T05:24:10;4.32;;;2.78;;
51451;SDS011;37521;52.020;-1.740;2023-04-24T05:26:54;4.15;;;2.40;;
51451;SDS011;37521;52.020;-1.740;2023-04-24T05:29:30;4.78;;;3.20;;
51451;SDS011;37521;52.020;-1.740;2023-04-24T05:32:00;4.80;;;3.17;;
51451;SDS011;37521;52.020;-1.740;2023-04-24T05:34:31;5.05;;;2.92;;
51451;SDS011;37521;52.020;-1.740;2023-04-24T05:37:01;4.57;;;2.78;;
51451;SDS011;37521;52.020;-1.740;2023-04-24T05:39:30;4.72;;;3.17;;
51451;SDS011;37521;52.020;-1.740;2023-04-24T05:42:00;3.65;;;2.80;;
51451;SDS011;37521;52.020;-1.740;2023-04-24T05:44:30;5.55;;;3.00;;
51451;SDS011;37521;52.020;-1.740;2023-04-24T05:46:59;4.10;;;2.95;;
51451;SDS011;37521;52.020;-1.740;2023-04-24T05:49:28;3.78;;;3.03;;
51451;SDS011;37521;52.020;-1.740;2023-04-24T05:51:57;3.97;;;2.63;;
51451;SDS011;37521;52.020;-1.740;2023-04-24T05:54:28;4.53;;;2.78;;
51451;SDS011;37521;52.020;-1.740;2023-04-24T05:56:56;3.47;;;2.55;;
51451;SDS011;37521;52.020;-1.740;2023-04-24T05:59:38;3.45;;;2.67;;
51451;SDS011;37521;52.020;-1.740;2023-04-24T06:02:09;3.25;;;2.67;;
51451;SDS011;37521;52.020;-1.740;2023-04-24T06:04:39;4.13;;;2.97;;
51451;SDS011;37521;52.020;-1.740;2023-04-24T06:07:10;4.28;;;2.90;;
51451;SDS011;37521;52.020;-1.740;2023-04-24T06:09:43;5.60;;;3.17;;
51451;SDS011;37521;52.020;-1.740;2023-04-24T06:12:12;4.07;;;2.80;;
51451;SDS011;37521;52.020;-1.740;2023-04-24T06:14:53;3.88;;;2.67;;
51451;SDS011;37521;52.020;-1.740;2023-04-24T06:17:33;4.95;;;2.83;;
51451;SDS011;37521;52.020;-1.740;2023-04-24T06:20:03;3.92;;;2.92;;
51451;SDS011;37521;52.020;-1.740;2023-04-24T06:22:35;4.57;;;3.42;;
51451;SDS011;37521;52.020;-1.740;2023-04-24T06:25:07;5.20;;;3.30;;
51451;SDS011;37521;52.020;-1.740;2023-04-24T06:27:37;3.83;;;2.95;;
51451;SDS011;37521;52.020;-1.740;2023-04-24T06:30:08;5.43;;;2.85;;
51451;SDS011;37521;52.020;-1.740;2023-04-24T06:32:39;4.90;;;2.92;;
51451;SDS011;37521;52.020;-1.740;2023-04-24T06:35:09;4.57;;;3.22;;
51451;SDS011;37521;52.020;-1.740;2023-04-24T06:37:39;3.58;;;2.70;;
51451;SDS011;37521;52.020;-1.740;2023-04-24T06:40:10;3.25;;;2.35;;
51451;SDS011;37521;52.020;-1.740;2023-04-24T06:42:39;1.90;;;1.67;;
51451;SDS011;37521;52.020;-1.740;2023-04-24T06:45:09;2.47;;;1.67;;
51451;SDS011;37521;52.020;-1.740;2023-04-24T06:47:38;2.75;;;1.58;;
51451;SDS011;37521;52.020;-1.740;2023-04-24T06:50:08;4.88;;;1.63;;
51451;SDS011;37521;52.020;-1.740;2023-04-24T06:52:37;2.00;;;1.80;;
51451;SDS011;37521;52.020;-1.740;2023-04-24T06:55:09;4.10;;;1.52;;
51451;SDS011;37521;52.020;-1.740;2023-04-24T06:57:37;3.20;;;1.67;;
51451;SDS011;37521;52.020;-1.740;2023-04-24T07:00:06;1.70;;;1.55;;
51451;SDS011;37521;52.020;-1.740;2023-04-24T07:02:35;4.55;;;2.08;;
51451;SDS011;37521;52.020;-1.740;2023-04-24T07:05:04;4.07;;;2.00;;
51451;SDS011;37521;52.020;-1.740;2023-04-24T07:07:35;4.47;;;2.10;;
51451;SDS011;37521;52.020;-1.740;2023-04-24T07:10:06;3.65;;;1.63;;
51451;SDS011;37521;52.020;-1.740;2023-04-24T07:12:39;1.73;;;1.40;;
51451;SDS011;37521;52.020;-1.740;2023-04-24T07:15:09;1.55;;;1.15;;
51451;SDS011;37521;52.020;-1.740;2023-04-24T07:17:39;1.00;;;0.85;;
51451;SDS011;37521;52.020;-1.740;2023-04-24T07:20:10;2.00;;;0.95;;
51451;SDS011;37521;52.020;-1.740;2023-04-24T07:22:40;1.48;;;0.82;;
51451;SDS011;37521;52.020;-1.740;2023-04-24T07:25:10;0.82;;;0.82;;
51451;SDS011;37521;52.020;-1.740;2023-04-24T07:27:40;2.53;;;0.95;;
51451;SDS011;37521;52.020;-1.740;2023-04-24T07:30:09;0.93;;;0.93;;
51451;SDS011;37521;52.020;-1.740;2023-04-24T07:32:37;1.02;;;0.85;;
51451;SDS011;37521;52.020;-1.740;2023-04-24T07:35:06;1.35;;;0.60;;
51451;SDS011;37521;52.020;-1.740;2023-04-24T07:37:36;1.08;;;0.93;;
51451;SDS011;37521;52.020;-1.740;2023-04-24T07:40:04;0.88;;;0.80;;
51451;SDS011;37521;52.020;-1.740;2023-04-24T07:42:34;1.45;;;1.08;;
51451;SDS011;37521;52.020;-1.740;2023-04-24T07:45:04;1.10;;;0.75;;
51451;SDS011;37521;52.020;-1.740;2023-04-24T07:47:34;2.13;;;1.08;;
51451;SDS011;37521;52.020;-1.740;2023-04-24T07:50:04;3.47;;;0.68;;
51451;SDS011;37521;52.020;-1.740;2023-04-24T07:52:34;1.95;;;0.90;;
51451;SDS011;37521;52.020;-1.740;2023-04-24T07:55:03;3.97;;;0.85;;
51451;SDS011;37521;52.020;-1.740;2023-04-24T07:57:33;1.67;;;0.85;;
51451;SDS011;37521;52.020;-1.740;2023-04-24T08:00:05;1.30;;;0.63;;
51451;SDS011;37521;52.020;-1.740;2023-04-24T08:02:38;2.45;;;1.10;;
51451;SDS011;37521;52.020;-1.740;2023-04-24T08:05:08;2.15;;;0.80;;
51451;SDS011;37521;52.020;-1.740;2023-04-24T08:07:38;2.95;;;1.10;;
51451;SDS011;37521;52.020;-1.740;2023-04-24T08:10:06;3.65;;;1.42;;
51451;SDS011;37521;52.020;-1.740;2023-04-24T08:12:37;1.40;;;0.88;;
51451;SDS011;37521;52.020;-1.740;2023-04-24T08:15:09;0.68;;;0.63;;
51451;SDS011;37521;52.020;-1.740;2023-04-24T08:17:39;2.85;;;0.80;;
51451;SDS011;37521;52.020;-1.740;2023-04-24T08:20:09;0.60;;;0.60;;
51451;SDS011;37521;52.020;-1.740;2023-04-24T08:22:40;0.95;;;0.80;;
51451;SDS011;37521;52.020;-1.740;2023-04-24T08:25:09;1.58;;;1.25;;
51451;SDS011;37521;52.020;-1.740;2023-04-24T08:27:38;0.95;;;0.70;;
51451;SDS011;37521;52.020;-1.740;2023-04-24T08:30:06;3.05;;;0.70;;
51451;SDS011;37521;52.020;-1.740;2023-04-24T08:32:36;1.58;;;1.15;;
51451;SDS011;37521;52.020;-1.740;2023-04-24T08:35:05;0.93;;;0.70;;
51451;SDS011;37521;52.020;-1.740;2023-04-24T08:37:35;1.23;;;0.93;;
51451;SDS011;37521;52.020;-1.740;2023-04-24T08:40:05;1.10;;;1.00;;
51451;SDS011;37521;52.020;-1.740;2023-04-24T08:42:36;0.95;;;0.82;;
51451;SDS011;37521;52.020;-1.740;2023-04-24T08:45:05;1.63;;;0.73;;
51451;SDS011;37521;52.020;-1.740;2023-04-24T08:47:34;0.90;;;0.90;;
51451;SDS011;37521;52.020;-1.740;2023-04-24T08:50:05;1.27;;;0.85;;
51451;SDS011;37521;52.020;-1.740;2023-04-24T08:52:34;1.00;;;0.88;;
51451;SDS011;37521;52.020;-1.740;2023-04-24T08:55:03;1.80;;;1.00;;
51451;SDS011;37521;52.020;-1.740;2023-04-24T08:57:33;1.75;;;0.70;;
51451;SDS011;37521;52.020;-1.740;2023-04-24T09:00:02;1.95;;;0.82;;
51451;SDS011;37521;52.020;-1.740;2023-04-24T09:02:31;3.80;;;1.02;;
51451;SDS011;37521;52.020;-1.740;2023-04-24T09:05:03;2.95;;;0.60;;
51451;SDS011;37521;52.020;-1.740;2023-04-24T09:07:32;0.85;;;0.70;;
51451;SDS011;37521;52.020;-1.740;2023-04-24T09:10:03;3.10;;;1.00;;
51451;SDS011;37521;52.020;-1.740;2023-04-24T09:12:31;1.10;;;0.98;;
51451;SDS011;37521;52.020;-1.740;2023-04-24T09:15:00;0.93;;;0.82;;
51451;SDS011;37521;52.020;-1.740;2023-04-24T09:17:31;2.15;;;0.93;;
51451;SDS011;37521;52.020;-1.740;2023-04-24T09:20:00;2.22;;;0.93;;
51451;SDS011;37521;52.020;-1.740;2023-04-24T09:22:30;1.05;;;1.02;;
51451;SDS011;37521;52.020;-1.740;2023-04-24T09:25:01;1.20;;;1.10;;
51451;SDS011;37521;52.020;-1.740;2023-04-24T09:27:32;0.97;;;0.67;;
51451;SDS011;37521;52.020;-1.740;2023-04-24T09:30:01;2.72;;;1.35;;
51451;SDS011;37521;52.020;-1.740;2023-04-24T09:32:30;2.08;;;0.70;;
51451;SDS011;37521;52.020;-1.740;2023-04-24T09:37:47;0.52;;;0.52;;
51451;SDS011;37521;52.020;-1.740;2023-04-24T09:40:16;3.58;;;0.73;;
51451;SDS011;37521;52.020;-1.740;2023-04-24T09:42:51;0.95;;;0.45;;
51451;SDS011;37521;52.020;-1.740;2023-04-24T09:45:21;1.45;;;0.70;;
51451;SDS011;37521;52.020;-1.740;2023-04-24T09:47:51;1.08;;;0.52;;
51451;SDS011;37521;52.020;-1.740;2023-04-24T09:50:21;3.63;;;1.00;;
51451;SDS011;37521;52.020;-1.740;2023-04-24T09:52:56;0.55;;;0.55;;
51451;SDS011;37521;52.020;-1.740;2023-04-24T09:55:25;0.70;;;0.68;;
51451;SDS011;37521;52.020;-1.740;2023-04-24T09:57:54;2.13;;;1.15;;
51451;SDS011;37521;52.020;-1.740;2023-04-24T10:00:25;2.03;;;1.08;;
51451;SDS011;37521;52.020;-1.740;2023-04-24T10:02:55;2.20;;;1.10;;
51451;SDS011;37521;52.020;-1.740;2023-04-24T10:05:26;3.25;;;1.00;;
51451;SDS011;37521;52.020;-1.740;2023-04-24T10:07:56;3.20;;;0.73;;
51451;SDS011;37521;52.020;-1.740;2023-04-24T10:10:25;2.90;;;1.20;;
51451;SDS011;37521;52.020;-1.740;2023-04-24T10:12:53;3.42;;;1.00;;
51451;SDS011;37521;52.020;-1.740;2023-04-24T10:15:22;1.00;;;0.90;;
51451;SDS011;37521;52.020;-1.740;2023-04-24T10:17:51;3.53;;;1.02;;
51451;SDS011;37521;52.020;-1.740;2023-04-24T10:20:20;3.08;;;0.93;;
51451;SDS011;37521;52.020;-1.740;2023-04-24T10:22:52;4.80;;;1.42;;
51451;SDS011;37521;52.020;-1.740;2023-04-24T10:25:22;1.52;;;0.93;;
51451;SDS011;37521;52.020;-1.740;2023-04-24T10:27:51;3.45;;;1.17;;
51451;SDS011;37521;52.020;-1.740;2023-04-24T10:30:23;2.10;;;0.88;;
51451;SDS011;37521;52.020;-1.740;2023-04-24T10:32:52;2.50;;;0.90;;
51451;SDS011;37521;52.020;-1.740;2023-04-24T10:35:20;2.38;;;0.90;;
51451;SDS011;37521;52.020;-1.740;2023-04-24T10:37:56;4.25;;;0.82;;
51451;SDS011;37521;52.020;-1.740;2023-04-24T10:40:29;0.90;;;0.88;;
51451;SDS011;37521;52.020;-1.740;2023-04-24T10:43:02;2.90;;;0.97;;
51451;SDS011;37521;52.020;-1.740;2023-04-24T10:45:32;1.23;;;1.10;;
51451;SDS011;37521;52.020;-1.740;2023-04-24T10:48:01;3.03;;;0.98;;
51451;SDS011;37521;52.020;-1.740;2023-04-24T10:50:42;1.35;;;0.82;;
51451;SDS011;37521;52.020;-1.740;2023-04-24T10:53:13;1.67;;;0.70;;
51451;SDS011;37521;52.020;-1.740;2023-04-24T10:55:44;0.95;;;0.77;;
51451;SDS011;37521;52.020;-1.740;2023-04-24T10:58:14;4.18;;;1.30;;
51451;SDS011;37521;52.020;-1.740;2023-04-24T11:00:48;3.90;;;0.77;;
51451;SDS011;37521;52.020;-1.740;2023-04-24T11:03:25;0.77;;;0.50;;
51451;SDS011;37521;52.020;-1.740;2023-04-24T11:05:56;1.33;;;1.23;;
51451;SDS011;37521;52.020;-1.740;2023-04-24T11:08:29;2.63;;;1.15;;
51451;SDS011;37521;52.020;-1.740;2023-04-24T11:10:59;1.77;;;1.08;;
51451;SDS011;37521;52.020;-1.740;2023-04-24T11:16:37;1.42;;;1.13;;
51451;SDS011;37521;52.020;-1.740;2023-04-24T11:19:17;1.15;;;1.05;;
51451;SDS011;37521;52.020;-1.740;2023-04-24T11:21:48;1.42;;;1.27;;
51451;SDS011;37521;52.020;-1.740;2023-04-24T11:24:26;1.30;;;1.20;;
51451;SDS011;37521;52.020;-1.740;2023-04-24T11:26:58;3.53;;;1.13;;
51451;SDS011;37521;52.020;-1.740;2023-04-24T11:29:42;1.35;;;1.02;;
51451;SDS011;37521;52.020;-1.740;2023-04-24T11:32:15;1.88;;;1.08;;
51451;SDS011;37521;52.020;-1.740;2023-04-24T11:35:02;1.55;;;1.17;;
51451;SDS011;37521;52.020;-1.740;2023-04-24T11:37:33;1.52;;;1.20;;
51451;SDS011;37521;52.020;-1.740;2023-04-24T11:40:04;0.98;;;0.98;;
51451;SDS011;37521;52.020;-1.740;2023-04-24T11:42:34;2.85;;;1.48;;
51451;SDS011;37521;52.020;-1.740;2023-04-24T11:45:07;2.45;;;1.23;;
51451;SDS011;37521;52.020;-1.740;2023-04-24T11:47:36;1.42;;;1.10;;
51451;SDS011;37521;52.020;-1.740;2023-04-24T11:50:05;2.75;;;1.38;;
51451;SDS011;37521;52.020;-1.740;2023-04-24T11:52:36;4.25;;;1.60;;
51451;SDS011;37521;52.020;-1.740;2023-04-24T11:55:23;1.20;;;1.10;;
51451;SDS011;37521;52.020;-1.740;2023-04-24T11:57:54;1.08;;;1.00;;
51451;SDS011;37521;52.020;-1.740;2023-04-24T12:00:25;2.00;;;1.30;;
51451;SDS011;37521;52.020;-1.740;2023-04-24T12:03:03;1.98;;;1.25;;
51451;SDS011;37521;52.020;-1.740;2023-04-24T12:05:34;3.00;;;1.38;;
51451;SDS011;37521;52.020;-1.740;2023-04-24T12:08:03;3.55;;;1.15;;
51451;SDS011;37521;52.020;-1.740;2023-04-24T12:10:33;3.80;;;1.45;;
51451;SDS011;37521;52.020;-1.740;2023-04-24T12:13:02;1.85;;;1.00;;
51451;SDS011;37521;52.020;-1.740;2023-04-24T12:15:30;4.38;;;1.70;;
51451;SDS011;37521;52.020;-1.740;2023-04-24T12:17:59;3.20;;;1.00;;
51451;SDS011;37521;52.020;-1.740;2023-04-24T12:20:28;4.15;;;1.20;;
51451;SDS011;37521;52.020;-1.740;2023-04-24T12:22:58;3.10;;;1.55;;
51451;SDS011;37521;52.020;-1.740;2023-04-24T12:25:29;1.38;;;1.00;;
51451;SDS011;37521;52.020;-1.740;2023-04-24T12:28:09;1.63;;;1.40;;
51451;SDS011;37521;52.020;-1.740;2023-04-24T12:30:40;3.40;;;1.52;;
51451;SDS011;37521;52.020;-1.740;2023-04-24T12:33:10;4.80;;;1.67;;
51451;SDS011;37521;52.020;-1.740;2023-04-24T12:35:40;1.77;;;1.50;;
51451;SDS011;37521;52.020;-1.740;2023-04-24T12:38:09;1.92;;;1.23;;
51451;SDS011;37521;52.020;-1.740;2023-04-24T12:40:39;2.00;;;1.33;;
51451;SDS011;37521;52.020;-1.740;2023-04-24T12:43:15;1.80;;;1.25;;
51451;SDS011;37521;52.020;-1.740;2023-04-24T12:45:44;1.80;;;1.33;;
51451;SDS011;37521;52.020;-1.740;2023-04-24T12:48:13;1.80;;;0.98;;
51451;SDS011;37521;52.020;-1.740;2023-04-24T12:50:42;2.50;;;1.25;;
51451;SDS011;37521;52.020;-1.740;2023-04-24T12:53:12;1.55;;;1.42;;
51451;SDS011;37521;52.020;-1.740;2023-04-24T12:55:41;1.88;;;1.40;;
51451;SDS011;37521;52.020;-1.740;2023-04-24T12:58:10;2.65;;;1.55;;
51451;SDS011;37521;52.020;-1.740;2023-04-24T13:00:40;2.58;;;1.65;;
51451;SDS011;37521;52.020;-1.740;2023-04-24T13:03:10;3.15;;;1.25;;
51451;SDS011;37521;52.020;-1.740;2023-04-24T13:05:38;1.00;;;0.90;;
51451;SDS011;37521;52.020;-1.740;2023-04-24T13:08:06;2.58;;;1.40;;
51451;SDS011;37521;52.020;-1.740;2023-04-24T13:10:35;2.28;;;0.90;;
51451;SDS011;37521;52.020;-1.740;2023-04-24T13:13:03;1.52;;;1.25;;
51451;SDS011;37521;52.020;-1.740;2023-04-24T13:15:31;1.05;;;1.05;;
51451;SDS011;37521;52.020;-1.740;2023-04-24T13:18:01;2.00;;;1.20;;
51451;SDS011;37521;52.020;-1.740;2023-04-24T13:20:29;3.65;;;1.30;;
51451;SDS011;37521;52.020;-1.740;2023-04-24T13:22:58;1.17;;;1.08;;
51451;SDS011;37521;52.020;-1.740;2023-04-24T13:25:26;1.73;;;1.52;;
51451;SDS011;37521;52.020;-1.740;2023-04-24T13:27:54;1.90;;;1.00;;
51451;SDS011;37521;52.020;-1.740;2023-04-24T13:30:22;1.48;;;1.02;;
51451;SDS011;37521;52.020;-1.740;2023-04-24T13:32:51;3.53;;;1.15;;
51451;SDS011;37521;52.020;-1.740;2023-04-24T13:35:20;1.20;;;1.10;;
51451;SDS011;37521;52.020;-1.740;2023-04-24T13:37:48;6.35;;;1.13;;
51451;SDS011;37521;52.020;-1.740;2023-04-24T13:40:17;1.70;;;1.13;;
51451;SDS011;37521;52.020;-1.740;2023-04-24T13:42:45;3.40;;;1.23;;
51451;SDS011;37521;52.020;-1.740;2023-04-24T13:45:13;1.75;;;1.10;;
51451;SDS011;37521;52.020;-1.740;2023-04-24T13:47:50;1.73;;;0.80;;
51451;SDS011;37521;52.020;-1.740;2023-04-24T13:50:22;1.95;;;1.20;;
51451;SDS011;37521;52.020;-1.740;2023-04-24T13:52:50;1.98;;;1.20;;
51451;SDS011;37521;52.020;-1.740;2023-04-24T13:55:18;2.53;;;1.40;;
51451;SDS011;37521;52.020;-1.740;2023-04-24T13:57:46;2.28;;;1.35;;
51451;SDS011;37521;52.020;-1.740;2023-04-24T14:00:14;3.90;;;2.58;;
51451;SDS011;37521;52.020;-1.740;2023-04-24T14:02:43;2.53;;;1.40;;
51451;SDS011;37521;52.020;-1.740;2023-04-24T14:05:12;1.42;;;1.00;;
51451;SDS011;37521;52.020;-1.740;2023-04-24T14:07:41;1.75;;;1.48;;
51451;SDS011;37521;52.020;-1.740;2023-04-24T14:10:10;2.03;;;1.33;;
51451;SDS011;37521;52.020;-1.740;2023-04-24T14:12:38;1.50;;;1.30;;
51451;SDS011;37521;52.020;-1.740;2023-04-24T14:15:07;2.22;;;1.00;;
51451;SDS011;37521;52.020;-1.740;2023-04-24T14:17:36;1.48;;;1.38;;
51451;SDS011;37521;52.020;-1.740;2023-04-24T14:20:05;4.30;;;1.05;;
51451;SDS011;37521;52.020;-1.740;2023-04-24T14:22:35;2.28;;;1.42;;
51451;SDS011;37521;52.020;-1.740;2023-04-24T14:25:05;3.13;;;1.83;;
51451;SDS011;37521;52.020;-1.740;2023-04-24T14:27:34;1.75;;;1.27;;
51451;SDS011;37521;52.020;-1.740;2023-04-24T14:30:02;2.10;;;1.80;;
51451;SDS011;37521;52.020;-1.740;2023-04-24T14:32:31;2.90;;;1.30;;
51451;SDS011;37521;52.020;-1.740;2023-04-24T14:34:59;1.52;;;0.93;;
51451;SDS011;37521;52.020;-1.740;2023-04-24T14:37:27;2.15;;;1.48;;
51451;SDS011;37521;52.020;-1.740;2023-04-24T14:39:55;1.98;;;1.55;;
51451;SDS011;37521;52.020;-1.740;2023-04-24T14:42:45;2.28;;;1.50;;
51451;SDS011;37521;52.020;-1.740;2023-04-24T14:45:13;2.30;;;1.95;;
51451;SDS011;37521;52.020;-1.740;2023-04-24T14:47:41;3.15;;;1.77;;
51451;SDS011;37521;52.020;-1.740;2023-04-24T14:50:09;3.33;;;1.42;;
51451;SDS011;37521;52.020;-1.740;2023-04-24T14:52:39;2.17;;;1.30;;
51451;SDS011;37521;52.020;-1.740;2023-04-24T14:55:07;1.55;;;1.33;;
51451;SDS011;37521;52.020;-1.740;2023-04-24T14:57:36;5.18;;;1.27;;
51451;SDS011;37521;52.020;-1.740;2023-04-24T15:00:06;2.40;;;1.38;;